»·PEaware :: DFGCW KGEG-KMSO

DFGCW :: KGEG-KMSO

FLIGHT INFORMATION

Flight Status: Arrived
Operator: Unknown
More flights by this operator :: More flights under this callsign
Pilot: Klaus A. (15485)
Aircraft: PILATUS PC-12 EAGLE
(PC12)
More flights by this aircraft type
Origin: KGEG Spokane Intl
United States
Destination: KMSO Missoula Intl
United States
More flights between these airports :: More routes between these airports
Route: +GEG V2 MLP V2 MSO
File this flight plan on PilotEdge
Remarks:
Altitude:
(Current/Filed)
15,000ft
Speed:
(Current/Filed)
230kts
Departed: 22-Mar-19 08:48 AM
Arrived: 22-Mar-19 09:37 AM
Distance/Time
Traveled:
146nm/0:49
Distance/Time
To Go:
Arrived

Flight Plot

Page will automatically refresh every two minutes.

Flight plan parsing failed; only flown route is shown


Map Options




Map Legend


Flown Route
Filed Route
Departure Airport
Arrival Airport
Navaid (VOR, NDB)
Fix

Horizontal Profiles

Position Reports

Time Latitude Longitude Heading Altitude Ground
Speed
22-Mar-19 08:25 47.625809 -117.535151 217 2389ft 0kts
22-Mar-19 08:26 47.625809 -117.535151 217 2389ft 0kts
22-Mar-19 08:27 47.625809 -117.535151 217 2389ft 0kts
22-Mar-19 08:28 47.625809 -117.535150 217 2389ft 0kts
22-Mar-19 08:29 47.625809 -117.535151 217 2389ft 0kts
22-Mar-19 08:30 47.625809 -117.535151 217 2389ft 0kts
22-Mar-19 08:31 47.625809 -117.535151 217 2389ft 0kts
22-Mar-19 08:32 47.625809 -117.535151 217 2389ft 0kts
22-Mar-19 08:33 47.625809 -117.535151 217 2389ft 0kts
22-Mar-19 08:34 47.625809 -117.535151 217 2389ft 0kts
22-Mar-19 08:35 47.625799 -117.535215 302 2389ft 0kts
22-Mar-19 08:37 47.626212 -117.534423 77 2390ft 2kts
22-Mar-19 08:38 47.624972 -117.531824 67 2390ft 15kts
22-Mar-19 08:39 47.627467 -117.527946 45 2390ft 11kts
22-Mar-19 08:40 47.629971 -117.524197 45 2389ft 15kts
22-Mar-19 08:41 47.632083 -117.519737 134 2389ft 9kts
22-Mar-19 08:42 47.631864 -117.519411 133 2389ft 0kts
22-Mar-19 08:43 47.631864 -117.519411 133 2389ft 0kts
22-Mar-19 08:44 47.631864 -117.519411 133 2389ft 0kts
22-Mar-19 08:45 47.631864 -117.519411 133 2389ft 0kts
22-Mar-19 08:46 47.631864 -117.519411 133 2389ft 0kts
22-Mar-19 08:47 47.630794 -117.518851 217 2390ft 2kts
22-Mar-19 08:48 47.611251 -117.548795 226 3249ft 142kts
22-Mar-19 08:49 47.581043 -117.594734 224 4957ft 162kts
22-Mar-19 08:50 47.546927 -117.635868 179 6663ft 171kts
22-Mar-19 08:51 47.542785 -117.584982 51 8310ft 170kts
22-Mar-19 08:52 47.565070 -117.526567 101 9801ft 168kts
22-Mar-19 08:53 47.559077 -117.455064 96 10886ft 186kts
22-Mar-19 08:54 47.553815 -117.368556 95 10922ft 228kts
22-Mar-19 08:54 47.549667 -117.293557 95 11867ft 206kts
22-Mar-19 08:56 47.544915 -117.200180 95 13594ft 190kts
22-Mar-19 08:57 47.541151 -117.123906 96 14973ft 188kts
22-Mar-19 08:57 47.537529 -117.051552 95 15003ft 228kts
22-Mar-19 08:58 47.532627 -116.953130 95 14998ft 246kts
22-Mar-19 09:00 47.525831 -116.833461 95 14997ft 252kts
22-Mar-19 09:00 47.521222 -116.746874 95 14996ft 253kts
22-Mar-19 09:01 47.515591 -116.642655 95 14996ft 254kts
22-Mar-19 09:03 47.508907 -116.521177 95 14996ft 254kts
22-Mar-19 09:03 47.504018 -116.433788 95 14996ft 254kts
22-Mar-19 09:04 47.498098 -116.329568 96 14980ft 255kts
22-Mar-19 09:05 47.492039 -116.224863 95 14950ft 255kts
22-Mar-19 09:06 47.485918 -116.120208 95 14951ft 255kts
22-Mar-19 09:07 47.479697 -116.015744 95 14951ft 255kts
22-Mar-19 09:08 47.473356 -115.910910 95 14951ft 255kts
22-Mar-19 09:09 47.466944 -115.806500 95 14951ft 255kts
22-Mar-19 09:10 47.460427 -115.701903 95 14950ft 255kts
22-Mar-19 09:11 47.441933 -115.602306 116 14951ft 254kts
22-Mar-19 09:12 47.422468 -115.503900 111 14951ft 253kts
22-Mar-19 09:13 47.397586 -115.406250 110 14950ft 254kts
22-Mar-19 09:14 47.373132 -115.308338 111 14951ft 254kts
22-Mar-19 09:15 47.348611 -115.210436 111 14951ft 254kts
22-Mar-19 09:16 47.324112 -115.113054 111 14951ft 253kts
22-Mar-19 09:17 47.300080 -115.017912 111 14941ft 229kts
22-Mar-19 09:18 47.279249 -114.935789 111 14160ft 209kts
22-Mar-19 09:19 47.259007 -114.856442 111 12864ft 206kts
22-Mar-19 09:20 47.239080 -114.777954 111 11588ft 204kts
22-Mar-19 09:21 47.219030 -114.700361 111 10502ft 194kts
22-Mar-19 09:22 47.202792 -114.636810 110 10442ft 144kts
22-Mar-19 09:23 47.190551 -114.583759 117 10491ft 135kts
22-Mar-19 09:24 47.169862 -114.532820 127 10527ft 150kts
22-Mar-19 09:25 47.142519 -114.482057 129 9631ft 157kts
22-Mar-19 09:26 47.115835 -114.435207 131 8586ft 145kts
22-Mar-19 09:27 47.092668 -114.394699 128 8258ft 119kts
22-Mar-19 09:28 47.070879 -114.356892 129 7736ft 125kts
22-Mar-19 09:29 47.048230 -114.318301 128 7051ft 129kts
22-Mar-19 09:30 47.025029 -114.278243 129 6319ft 128kts
22-Mar-19 09:31 47.001556 -114.237900 134 5526ft 130kts
22-Mar-19 09:32 46.978258 -114.198045 128 4837ft 128kts
22-Mar-19 09:33 46.955180 -114.158320 131 4153ft 128kts
22-Mar-19 09:34 46.933242 -114.120764 129 3503ft 109kts
22-Mar-19 09:35 46.916243 -114.091793 129 3211ft 50kts
22-Mar-19 09:36 46.913244 -114.084364 35 3211ft 2kts
22-Mar-19 09:37 46.913245 -114.084363 35 3211ft 0kts
22-Mar-19 09:38 46.913381 -114.084220 38 3210ft 5kts
22-Mar-19 09:39 46.915983 -114.087724 309 3211ft 16kts
22-Mar-19 09:40 46.918816 -114.092588 310 3211ft 14kts
22-Mar-19 09:41 46.921718 -114.090250 35 3211ft 11kts
22-Mar-19 09:42 46.922315 -114.087194 87 3211ft 9kts
22-Mar-19 09:43 46.922268 -114.086956 126 3211ft 0kts
22-Mar-19 09:44 46.922268 -114.086956 126 3211ft 0kts
22-Mar-19 09:45 46.922268 -114.086956 126 3211ft 0kts
22-Mar-19 09:46 46.922268 -114.086956 126 3211ft 0kts
22-Mar-19 09:47 46.922268 -114.086956 126 3211ft 0kts
22-Mar-19 09:48 46.922268 -114.086956 126 3211ft 0kts
22-Mar-19 09:49 46.922268 -114.086956 126 3211ft 0kts
22-Mar-19 09:50 46.922268 -114.086956 126 3211ft 0kts
22-Mar-19 09:51 46.922268 -114.086956 126 3211ft 0kts

Navigation Log

Ident Type
Flight plan parsing failed, navigation log unavailable